Terminal Aerodrome Forecast
Issued by NWS Corpus Christi, TX

Home | Current Version | Previous Version | Text Only | Print | Product List | Glossary On
Versions: 1 2 3 4 5 6 7 8 9 10 11 12 13 14 15 16
000
FTUS44 KCRP 020523
TAFVCT
TAF
KVCT 020523Z 0206/0306 VRB03KT P6SM BKN250
     FM020800 10004KT 4SM BR SCT010 BKN250
      TEMPO 0210/0213 1SM BR BKN010
     FM021400 17012KT P6SM SCT020 SCT250
     FM022000 15014G18KT P6SM SCT035
     FM030200 14007KT P6SM SCT012=

USA.gov is the U.S. government's official web portal to all federal, state and local government web resources and services.